sensor_id;sensor_type;location;lat;lon;timestamp;temperature;humidity
17859;DHT22;35426;30.698;104.050;2022-10-16T00:00:04;19.50;99.90
17859;DHT22;35426;30.698;104.050;2022-10-16T00:02:39;19.50;99.90
17859;DHT22;35426;30.698;104.050;2022-10-16T00:05:13;19.60;99.90
17859;DHT22;35426;30.698;104.050;2022-10-16T00:07:48;19.70;99.90
17859;DHT22;35426;30.698;104.050;2022-10-16T00:10:22;19.80;99.90
17859;DHT22;35426;30.698;104.050;2022-10-16T00:12:57;19.80;99.90
17859;DHT22;35426;30.698;104.050;2022-10-16T00:15:34;19.90;99.90
17859;DHT22;35426;30.698;104.050;2022-10-16T00:18:10;20.00;99.90
17859;DHT22;35426;30.698;104.050;2022-10-16T00:20:45;20.20;99.90
17859;DHT22;35426;30.698;104.050;2022-10-16T00:23:20;20.40;99.90
17859;DHT22;35426;30.698;104.050;2022-10-16T00:25:59;20.30;99.90
17859;DHT22;35426;30.698;104.050;2022-10-16T00:28:34;20.40;99.90
17859;DHT22;35426;30.698;104.050;2022-10-16T00:31:12;20.50;99.90
17859;DHT22;35426;30.698;104.050;2022-10-16T00:33:47;20.60;99.90
17859;DHT22;35426;30.698;104.050;2022-10-16T00:36:24;20.60;99.90
17859;DHT22;35426;30.698;104.050;2022-10-16T00:39:00;20.80;99.90
17859;DHT22;35426;30.698;104.050;2022-10-16T00:41:35;20.90;99.90
17859;DHT22;35426;30.698;104.050;2022-10-16T00:47:27;21.10;99.90
17859;DHT22;35426;30.698;104.050;2022-10-16T00:50:08;21.50;99.90
17859;DHT22;35426;30.698;104.050;2022-10-16T00:52:46;21.60;99.90
17859;DHT22;35426;30.698;104.050;2022-10-16T00:55:22;21.80;99.90
17859;DHT22;35426;30.698;104.050;2022-10-16T00:57:59;21.90;99.90
17859;DHT22;35426;30.698;104.050;2022-10-16T01:00:34;21.90;99.90
17859;DHT22;35426;30.698;104.050;2022-10-16T01:03:29;22.20;99.90
17859;DHT22;35426;30.698;104.050;2022-10-16T01:06:18;22.90;99.90
17859;DHT22;35426;30.698;104.050;2022-10-16T01:09:17;23.40;99.90
17859;DHT22;35426;30.698;104.050;2022-10-16T01:12:01;24.40;99.90
17859;DHT22;35426;30.698;104.050;2022-10-16T01:14:43;24.80;99.90
17859;DHT22;35426;30.698;104.050;2022-10-16T01:17:25;25.60;99.90
17859;DHT22;35426;30.698;104.050;2022-10-16T01:20:10;25.70;99.90
17859;DHT22;35426;30.698;104.050;2022-10-16T01:22:54;25.40;99.90
17859;DHT22;35426;30.698;104.050;2022-10-16T01:25:46;26.30;99.90
17859;DHT22;35426;30.698;104.050;2022-10-16T01:28:31;27.20;99.90
17859;DHT22;35426;30.698;104.050;2022-10-16T01:31:07;27.30;99.90
17859;DHT22;35426;30.698;104.050;2022-10-16T01:33:46;27.00;99.90
17859;DHT22;35426;30.698;104.050;2022-10-16T01:36:33;27.60;99.90
17859;DHT22;35426;30.698;104.050;2022-10-16T01:39:11;28.40;99.90
17859;DHT22;35426;30.698;104.050;2022-10-16T01:41:51;29.20;99.90
17859;DHT22;35426;30.698;104.050;2022-10-16T01:44:33;28.70;99.90
17859;DHT22;35426;30.698;104.050;2022-10-16T01:47:10;29.30;99.90
17859;DHT22;35426;30.698;104.050;2022-10-16T01:49:52;30.50;99.90
17859;DHT22;35426;30.698;104.050;2022-10-16T01:52:29;30.20;99.90
17859;DHT22;35426;30.698;104.050;2022-10-16T01:55:09;30.20;99.90
17859;DHT22;35426;30.698;104.050;2022-10-16T01:57:50;30.30;99.90
17859;DHT22;35426;30.698;104.050;2022-10-16T02:00:33;30.20;99.90
17859;DHT22;35426;30.698;104.050;2022-10-16T02:03:10;31.20;99.90
17859;DHT22;35426;30.698;104.050;2022-10-16T02:05:50;31.80;99.90
17859;DHT22;35426;30.698;104.050;2022-10-16T02:08:29;32.50;99.90
17859;DHT22;35426;30.698;104.050;2022-10-16T02:11:04;32.80;99.90
17859;DHT22;35426;30.698;104.050;2022-10-16T02:13:41;32.80;99.90
17859;DHT22;35426;30.698;104.050;2022-10-16T02:16:34;32.20;99.90
17859;DHT22;35426;30.698;104.050;2022-10-16T02:19:14;32.80;99.90
17859;DHT22;35426;30.698;104.050;2022-10-16T02:21:54;33.00;99.90
17859;DHT22;35426;30.698;104.050;2022-10-16T02:24:35;32.90;99.10
17859;DHT22;35426;30.698;104.050;2022-10-16T02:27:19;32.80;99.60
17859;DHT22;35426;30.698;104.050;2022-10-16T02:30:03;33.20;98.70
17859;DHT22;35426;30.698;104.050;2022-10-16T02:32:47;33.30;97.60
17859;DHT22;35426;30.698;104.050;2022-10-16T02:35:26;33.30;97.30
17859;DHT22;35426;30.698;104.050;2022-10-16T02:38:04;32.80;97.40
17859;DHT22;35426;30.698;104.050;2022-10-16T02:40:47;32.90;96.60
17859;DHT22;35426;30.698;104.050;2022-10-16T02:43:22;33.00;95.90
17859;DHT22;35426;30.698;104.050;2022-10-16T02:45:59;33.70;95.10
17859;DHT22;35426;30.698;104.050;2022-10-16T02:48:37;33.70;94.30
17859;DHT22;35426;30.698;104.050;2022-10-16T02:51:13;33.30;94.50
17859;DHT22;35426;30.698;104.050;2022-10-16T02:53:54;33.70;93.60
17859;DHT22;35426;30.698;104.050;2022-10-16T02:56:30;32.70;93.50
17859;DHT22;35426;30.698;104.050;2022-10-16T02:59:05;32.80;94.30
17859;DHT22;35426;30.698;104.050;2022-10-16T03:01:40;32.30;93.80
17859;DHT22;35426;30.698;104.050;2022-10-16T03:04:19;31.90;94.30
17859;DHT22;35426;30.698;104.050;2022-10-16T03:06:56;31.80;94.10
17859;DHT22;35426;30.698;104.050;2022-10-16T03:09:37;31.40;94.40
17859;DHT22;35426;30.698;104.050;2022-10-16T03:12:16;31.60;94.50
17859;DHT22;35426;30.698;104.050;2022-10-16T03:14:55;31.60;93.20
17859;DHT22;35426;30.698;104.050;2022-10-16T03:17:33;31.40;94.50
17859;DHT22;35426;30.698;104.050;2022-10-16T03:20:13;31.10;94.80
17859;DHT22;35426;30.698;104.050;2022-10-16T03:22:48;30.70;94.50
17859;DHT22;35426;30.698;104.050;2022-10-16T03:25:27;30.60;94.70
17859;DHT22;35426;30.698;104.050;2022-10-16T03:28:04;30.50;94.70
17859;DHT22;35426;30.698;104.050;2022-10-16T03:30:42;29.90;95.30
17859;DHT22;35426;30.698;104.050;2022-10-16T03:33:22;29.70;95.10
17859;DHT22;35426;30.698;104.050;2022-10-16T03:36:02;29.60;95.50
17859;DHT22;35426;30.698;104.050;2022-10-16T03:38:40;29.80;96.30
17859;DHT22;35426;30.698;104.050;2022-10-16T03:41:17;29.50;96.60
17859;DHT22;35426;30.698;104.050;2022-10-16T03:43:53;29.20;96.70
17859;DHT22;35426;30.698;104.050;2022-10-16T03:46:30;29.30;96.70
17859;DHT22;35426;30.698;104.050;2022-10-16T03:49:05;28.80;97.20
17859;DHT22;35426;30.698;104.050;2022-10-16T03:51:44;28.70;97.50
17859;DHT22;35426;30.698;104.050;2022-10-16T03:54:19;28.30;98.20
17859;DHT22;35426;30.698;104.050;2022-10-16T03:56:59;28.40;98.00
17859;DHT22;35426;30.698;104.050;2022-10-16T03:59:35;27.80;97.60
17859;DHT22;35426;30.698;104.050;2022-10-16T04:02:09;27.60;98.10
17859;DHT22;35426;30.698;104.050;2022-10-16T04:04:44;27.70;98.80
17859;DHT22;35426;30.698;104.050;2022-10-16T04:07:25;27.60;98.40
17859;DHT22;35426;30.698;104.050;2022-10-16T04:10:07;27.40;96.60
17859;DHT22;35426;30.698;104.050;2022-10-16T04:12:45;27.10;97.20
17859;DHT22;35426;30.698;104.050;2022-10-16T04:15:27;27.20;96.30
17859;DHT22;35426;30.698;104.050;2022-10-16T04:18:10;27.00;97.50
17859;DHT22;35426;30.698;104.050;2022-10-16T04:20:56;26.80;96.80
17859;DHT22;35426;30.698;104.050;2022-10-16T04:23:35;26.80;97.10
17859;DHT22;35426;30.698;104.050;2022-10-16T04:26:13;27.00;97.00
17859;DHT22;35426;30.698;104.050;2022-10-16T04:28:49;26.70;94.40
17859;DHT22;35426;30.698;104.050;2022-10-16T04:31:31;26.70;93.30
17859;DHT22;35426;30.698;104.050;2022-10-16T04:34:11;26.70;92.70
17859;DHT22;35426;30.698;104.050;2022-10-16T04:36:49;26.60;92.10
17859;DHT22;35426;30.698;104.050;2022-10-16T04:39:31;26.40;92.70
17859;DHT22;35426;30.698;104.050;2022-10-16T04:42:07;26.50;93.60
17859;DHT22;35426;30.698;104.050;2022-10-16T04:44:48;26.60;95.50
17859;DHT22;35426;30.698;104.050;2022-10-16T04:47:30;26.60;96.50
17859;DHT22;35426;30.698;104.050;2022-10-16T04:50:11;26.60;95.80
17859;DHT22;35426;30.698;104.050;2022-10-16T04:53:06;26.60;96.00
17859;DHT22;35426;30.698;104.050;2022-10-16T04:55:49;26.60;96.20
17859;DHT22;35426;30.698;104.050;2022-10-16T04:58:30;26.40;95.10
17859;DHT22;35426;30.698;104.050;2022-10-16T05:01:07;26.40;95.10
17859;DHT22;35426;30.698;104.050;2022-10-16T05:03:43;26.40;95.00
17859;DHT22;35426;30.698;104.050;2022-10-16T05:06:28;26.50;94.80
17859;DHT22;35426;30.698;104.050;2022-10-16T05:09:29;26.70;94.80
17859;DHT22;35426;30.698;104.050;2022-10-16T05:12:17;26.70;94.30
17859;DHT22;35426;30.698;104.050;2022-10-16T05:14:58;26.80;94.70
17859;DHT22;35426;30.698;104.050;2022-10-16T05:17:33;26.60;94.30
17859;DHT22;35426;30.698;104.050;2022-10-16T05:20:14;26.80;93.60
17859;DHT22;35426;30.698;104.050;2022-10-16T05:22:58;26.80;93.90
17859;DHT22;35426;30.698;104.050;2022-10-16T05:25:35;26.90;93.50
17859;DHT22;35426;30.698;104.050;2022-10-16T05:28:21;26.80;93.10
17859;DHT22;35426;30.698;104.050;2022-10-16T05:30:59;27.00;93.60
17859;DHT22;35426;30.698;104.050;2022-10-16T05:33:47;27.00;92.40
17859;DHT22;35426;30.698;104.050;2022-10-16T05:36:25;26.90;92.40
17859;DHT22;35426;30.698;104.050;2022-10-16T05:39:10;26.80;92.90
17859;DHT22;35426;30.698;104.050;2022-10-16T05:42:03;26.60;91.60
17859;DHT22;35426;30.698;104.050;2022-10-16T05:44:51;26.70;91.50
17859;DHT22;35426;30.698;104.050;2022-10-16T05:47:34;26.70;92.60
17859;DHT22;35426;30.698;104.050;2022-10-16T05:50:17;26.80;93.20
17859;DHT22;35426;30.698;104.050;2022-10-16T05:52:53;26.90;91.90
17859;DHT22;35426;30.698;104.050;2022-10-16T05:55:29;27.00;92.30
17859;DHT22;35426;30.698;104.050;2022-10-16T05:58:04;26.90;91.50
17859;DHT22;35426;30.698;104.050;2022-10-16T06:00:54;26.90;91.70
17859;DHT22;35426;30.698;104.050;2022-10-16T06:03:31;27.00;92.20
17859;DHT22;35426;30.698;104.050;2022-10-16T06:06:10;27.10;91.70
17859;DHT22;35426;30.698;104.050;2022-10-16T06:08:48;26.80;91.70
17859;DHT22;35426;30.698;104.050;2022-10-16T06:11:28;26.80;91.80
17859;DHT22;35426;30.698;104.050;2022-10-16T06:14:05;26.60;90.40
17859;DHT22;35426;30.698;104.050;2022-10-16T06:16:52;26.60;90.60
17859;DHT22;35426;30.698;104.050;2022-10-16T06:19:33;26.70;90.10
17859;DHT22;35426;30.698;104.050;2022-10-16T06:22:10;26.70;89.80
17859;DHT22;35426;30.698;104.050;2022-10-16T06:24:46;26.40;89.60
17859;DHT22;35426;30.698;104.050;2022-10-16T06:27:23;26.20;89.20
17859;DHT22;35426;30.698;104.050;2022-10-16T06:30:02;26.20;87.90
17859;DHT22;35426;30.698;104.050;2022-10-16T06:32:47;26.20;89.00
17859;DHT22;35426;30.698;104.050;2022-10-16T06:35:45;26.30;88.90
17859;DHT22;35426;30.698;104.050;2022-10-16T06:38:25;26.40;89.20
17859;DHT22;35426;30.698;104.050;2022-10-16T06:41:06;26.70;87.50
17859;DHT22;35426;30.698;104.050;2022-10-16T06:43:46;26.70;87.90
17859;DHT22;35426;30.698;104.050;2022-10-16T06:46:24;26.50;86.90
17859;DHT22;35426;30.698;104.050;2022-10-16T06:49:03;26.40;88.40
17859;DHT22;35426;30.698;104.050;2022-10-16T06:51:39;26.60;88.50
17859;DHT22;35426;30.698;104.050;2022-10-16T06:54:16;26.80;88.00
17859;DHT22;35426;30.698;104.050;2022-10-16T06:56:55;27.00;90.00
17859;DHT22;35426;30.698;104.050;2022-10-16T06:59:32;27.10;89.80
17859;DHT22;35426;30.698;104.050;2022-10-16T07:02:10;27.10;89.60
17859;DHT22;35426;30.698;104.050;2022-10-16T07:04:59;27.10;88.50
17859;DHT22;35426;30.698;104.050;2022-10-16T07:07:35;27.10;87.80
17859;DHT22;35426;30.698;104.050;2022-10-16T07:10:12;27.20;87.60
17859;DHT22;35426;30.698;104.050;2022-10-16T07:12:54;27.20;86.60
17859;DHT22;35426;30.698;104.050;2022-10-16T07:15:36;27.30;87.60
17859;DHT22;35426;30.698;104.050;2022-10-16T07:18:16;27.30;87.20
17859;DHT22;35426;30.698;104.050;2022-10-16T07:21:04;27.20;88.10
17859;DHT22;35426;30.698;104.050;2022-10-16T07:23:42;26.90;87.60
17859;DHT22;35426;30.698;104.050;2022-10-16T07:26:30;26.70;87.30
17859;DHT22;35426;30.698;104.050;2022-10-16T07:29:15;26.70;87.80
17859;DHT22;35426;30.698;104.050;2022-10-16T07:31:59;26.60;89.30
17859;DHT22;35426;30.698;104.050;2022-10-16T07:34:38;26.60;88.40
17859;DHT22;35426;30.698;104.050;2022-10-16T07:37:18;26.70;88.50
17859;DHT22;35426;30.698;104.050;2022-10-16T07:40:02;27.00;88.70
17859;DHT22;35426;30.698;104.050;2022-10-16T07:42:40;27.10;89.20
17859;DHT22;35426;30.698;104.050;2022-10-16T07:45:18;27.10;88.80
17859;DHT22;35426;30.698;104.050;2022-10-16T07:47:55;27.20;87.60
17859;DHT22;35426;30.698;104.050;2022-10-16T07:50:35;27.20;90.10
17859;DHT22;35426;30.698;104.050;2022-10-16T07:53:19;27.00;88.50
17859;DHT22;35426;30.698;104.050;2022-10-16T07:55:59;27.00;90.00
17859;DHT22;35426;30.698;104.050;2022-10-16T07:58:41;26.90;90.00
17859;DHT22;35426;30.698;104.050;2022-10-16T08:01:17;27.00;90.10
17859;DHT22;35426;30.698;104.050;2022-10-16T08:04:11;27.10;89.30
17859;DHT22;35426;30.698;104.050;2022-10-16T08:06:47;27.10;89.90
17859;DHT22;35426;30.698;104.050;2022-10-16T08:09:26;27.10;88.30
17859;DHT22;35426;30.698;104.050;2022-10-16T08:12:06;27.00;89.20
17859;DHT22;35426;30.698;104.050;2022-10-16T08:14:43;26.90;89.30
17859;DHT22;35426;30.698;104.050;2022-10-16T08:17:18;26.80;90.40
17859;DHT22;35426;30.698;104.050;2022-10-16T08:19:58;26.80;89.30
17859;DHT22;35426;30.698;104.050;2022-10-16T08:22:35;26.60;88.60
17859;DHT22;35426;30.698;104.050;2022-10-16T08:25:19;26.50;88.00
17859;DHT22;35426;30.698;104.050;2022-10-16T08:28:02;26.60;87.60
17859;DHT22;35426;30.698;104.050;2022-10-16T08:30:49;26.60;87.90
17859;DHT22;35426;30.698;104.050;2022-10-16T08:33:28;26.60;87.60
17859;DHT22;35426;30.698;104.050;2022-10-16T08:36:04;26.70;87.60
17859;DHT22;35426;30.698;104.050;2022-10-16T08:38:48;26.50;87.20
17859;DHT22;35426;30.698;104.050;2022-10-16T08:41:41;26.40;86.30
17859;DHT22;35426;30.698;104.050;2022-10-16T08:44:56;26.30;85.30
17859;DHT22;35426;30.698;104.050;2022-10-16T08:47:51;26.20;88.00
17859;DHT22;35426;30.698;104.050;2022-10-16T08:50:39;26.30;89.50
17859;DHT22;35426;30.698;104.050;2022-10-16T08:53:19;26.20;89.40
17859;DHT22;35426;30.698;104.050;2022-10-16T08:55:56;26.20;88.70
17859;DHT22;35426;30.698;104.050;2022-10-16T08:58:40;26.30;86.90
17859;DHT22;35426;30.698;104.050;2022-10-16T09:01:20;26.30;87.20
17859;DHT22;35426;30.698;104.050;2022-10-16T09:04:18;26.20;87.50
17859;DHT22;35426;30.698;104.050;2022-10-16T09:06:57;26.30;88.10
17859;DHT22;35426;30.698;104.050;2022-10-16T09:10:01;26.30;88.00
17859;DHT22;35426;30.698;104.050;2022-10-16T09:12:47;26.30;87.90
17859;DHT22;35426;30.698;104.050;2022-10-16T09:15:34;26.10;86.10
17859;DHT22;35426;30.698;104.050;2022-10-16T09:18:21;26.00;86.20
17859;DHT22;35426;30.698;104.050;2022-10-16T09:21:10;26.00;85.00
17859;DHT22;35426;30.698;104.050;2022-10-16T09:24:07;26.10;82.40
17859;DHT22;35426;30.698;104.050;2022-10-16T09:26:45;26.10;83.50
17859;DHT22;35426;30.698;104.050;2022-10-16T09:29:23;26.00;82.10
17859;DHT22;35426;30.698;104.050;2022-10-16T09:32:11;25.90;81.40
17859;DHT22;35426;30.698;104.050;2022-10-16T09:34:57;25.90;82.40
17859;DHT22;35426;30.698;104.050;2022-10-16T09:37:33;25.80;82.10
17859;DHT22;35426;30.698;104.050;2022-10-16T09:40:23;25.70;82.50
17859;DHT22;35426;30.698;104.050;2022-10-16T09:43:11;25.70;82.90
17859;DHT22;35426;30.698;104.050;2022-10-16T09:46:00;25.70;82.70
17859;DHT22;35426;30.698;104.050;2022-10-16T09:48:47;25.60;82.50
17859;DHT22;35426;30.698;104.050;2022-10-16T09:51:33;25.50;82.50
17859;DHT22;35426;30.698;104.050;2022-10-16T09:54:16;25.50;82.20
17859;DHT22;35426;30.698;104.050;2022-10-16T09:56:52;25.50;82.40
17859;DHT22;35426;30.698;104.050;2022-10-16T09:59:31;25.40;81.80
17859;DHT22;35426;30.698;104.050;2022-10-16T10:02:13;25.30;82.20
17859;DHT22;35426;30.698;104.050;2022-10-16T10:04:53;25.30;81.80
17859;DHT22;35426;30.698;104.050;2022-10-16T10:07:33;25.30;81.50
17859;DHT22;35426;30.698;104.050;2022-10-16T10:10:21;25.20;81.80
17859;DHT22;35426;30.698;104.050;2022-10-16T10:12:58;25.10;81.80
17859;DHT22;35426;30.698;104.050;2022-10-16T10:15:41;25.10;81.10
17859;DHT22;35426;30.698;104.050;2022-10-16T10:18:20;25.00;81.50
17859;DHT22;35426;30.698;104.050;2022-10-16T10:21:04;24.90;80.40
17859;DHT22;35426;30.698;104.050;2022-10-16T10:23:40;24.90;81.60
17859;DHT22;35426;30.698;104.050;2022-10-16T10:26:17;24.80;81.80
17859;DHT22;35426;30.698;104.050;2022-10-16T10:29:03;24.70;82.90
17859;DHT22;35426;30.698;104.050;2022-10-16T10:31:48;24.60;83.30
17859;DHT22;35426;30.698;104.050;2022-10-16T10:34:44;24.50;83.00
17859;DHT22;35426;30.698;104.050;2022-10-16T10:37:37;24.50;83.70
17859;DHT22;35426;30.698;104.050;2022-10-16T10:40:29;24.40;83.60
17859;DHT22;35426;30.698;104.050;2022-10-16T10:43:27;24.40;83.80
17859;DHT22;35426;30.698;104.050;2022-10-16T10:46:07;24.20;83.80
17859;DHT22;35426;30.698;104.050;2022-10-16T10:49:00;24.20;85.20
17859;DHT22;35426;30.698;104.050;2022-10-16T10:51:48;24.10;84.70
17859;DHT22;35426;30.698;104.050;2022-10-16T10:54:45;24.10;85.00
17859;DHT22;35426;30.698;104.050;2022-10-16T10:57:29;24.00;85.10
17859;DHT22;35426;30.698;104.050;2022-10-16T11:00:20;24.00;85.40
17859;DHT22;35426;30.698;104.050;2022-10-16T11:03:06;23.90;85.40
17859;DHT22;35426;30.698;104.050;2022-10-16T11:05:51;23.90;85.50
17859;DHT22;35426;30.698;104.050;2022-10-16T11:08:34;23.90;85.80
17859;DHT22;35426;30.698;104.050;2022-10-16T11:11:18;23.80;85.90
17859;DHT22;35426;30.698;104.050;2022-10-16T11:13:59;23.80;86.10
17859;DHT22;35426;30.698;104.050;2022-10-16T11:16:45;23.80;85.90
17859;DHT22;35426;30.698;104.050;2022-10-16T11:19:39;23.70;86.00
17859;DHT22;35426;30.698;104.050;2022-10-16T11:22:20;23.70;86.20
17859;DHT22;35426;30.698;104.050;2022-10-16T11:25:04;23.70;86.40
17859;DHT22;35426;30.698;104.050;2022-10-16T11:27:54;23.60;86.50
17859;DHT22;35426;30.698;104.050;2022-10-16T11:30:39;23.60;86.70
17859;DHT22;35426;30.698;104.050;2022-10-16T11:33:30;23.60;86.90
17859;DHT22;35426;30.698;104.050;2022-10-16T11:36:31;23.60;87.10
17859;DHT22;35426;30.698;104.050;2022-10-16T11:39:18;23.60;87.40
17859;DHT22;35426;30.698;104.050;2022-10-16T11:41:59;23.60;87.80
17859;DHT22;35426;30.698;104.050;2022-10-16T11:45:00;23.60;88.10
17859;DHT22;35426;30.698;104.050;2022-10-16T11:47:43;23.50;88.10
17859;DHT22;35426;30.698;104.050;2022-10-16T11:50:41;23.50;88.30
17859;DHT22;35426;30.698;104.050;2022-10-16T11:53:41;23.50;88.60
17859;DHT22;35426;30.698;104.050;2022-10-16T11:56:21;23.40;88.80
17859;DHT22;35426;30.698;104.050;2022-10-16T11:59:00;23.40;89.10
17859;DHT22;35426;30.698;104.050;2022-10-16T12:01:46;23.40;89.40
17859;DHT22;35426;30.698;104.050;2022-10-16T12:04:29;23.30;89.40
17859;DHT22;35426;30.698;104.050;2022-10-16T12:07:09;23.30;89.60
17859;DHT22;35426;30.698;104.050;2022-10-16T12:09:54;23.30;89.60
17859;DHT22;35426;30.698;104.050;2022-10-16T12:12:40;23.30;89.60
17859;DHT22;35426;30.698;104.050;2022-10-16T12:15:26;23.30;89.50
17859;DHT22;35426;30.698;104.050;2022-10-16T12:18:26;23.30;89.80
17859;DHT22;35426;30.698;104.050;2022-10-16T12:21:04;23.20;90.20
17859;DHT22;35426;30.698;104.050;2022-10-16T12:23:52;23.20;90.50
17859;DHT22;35426;30.698;104.050;2022-10-16T12:26:38;23.20;90.30
17859;DHT22;35426;30.698;104.050;2022-10-16T12:29:26;23.20;90.30
17859;DHT22;35426;30.698;104.050;2022-10-16T12:32:23;23.20;90.30
17859;DHT22;35426;30.698;104.050;2022-10-16T12:35:24;23.20;90.30
17859;DHT22;35426;30.698;104.050;2022-10-16T12:38:17;23.20;90.30
17859;DHT22;35426;30.698;104.050;2022-10-16T12:41:06;23.20;90.50
17859;DHT22;35426;30.698;104.050;2022-10-16T12:43:50;23.20;90.60
17859;DHT22;35426;30.698;104.050;2022-10-16T12:46:39;23.20;90.40
17859;DHT22;35426;30.698;104.050;2022-10-16T12:49:30;23.20;90.40
17859;DHT22;35426;30.698;104.050;2022-10-16T12:52:44;23.20;90.70
17859;DHT22;35426;30.698;104.050;2022-10-16T12:55:21;23.10;91.10
17859;DHT22;35426;30.698;104.050;2022-10-16T12:58:08;23.10;91.70
17859;DHT22;35426;30.698;104.050;2022-10-16T13:00:48;23.00;91.90
17859;DHT22;35426;30.698;104.050;2022-10-16T13:03:50;23.00;91.50
17859;DHT22;35426;30.698;104.050;2022-10-16T13:06:42;23.10;91.40
17859;DHT22;35426;30.698;104.050;2022-10-16T13:09:40;23.00;91.20
17859;DHT22;35426;30.698;104.050;2022-10-16T13:12:45;23.10;91.20
17859;DHT22;35426;30.698;104.050;2022-10-16T13:15:39;23.10;91.20
17859;DHT22;35426;30.698;104.050;2022-10-16T13:18:21;23.10;91.20
17859;DHT22;35426;30.698;104.050;2022-10-16T13:21:25;23.00;91.30
17859;DHT22;35426;30.698;104.050;2022-10-16T13:24:16;23.10;91.00
17859;DHT22;35426;30.698;104.050;2022-10-16T13:27:01;23.10;90.90
17859;DHT22;35426;30.698;104.050;2022-10-16T13:29:40;23.10;91.40
17859;DHT22;35426;30.698;104.050;2022-10-16T13:32:16;23.10;91.90
17859;DHT22;35426;30.698;104.050;2022-10-16T13:34:53;23.10;92.90
17859;DHT22;35426;30.698;104.050;2022-10-16T13:37:33;23.00;93.70
17859;DHT22;35426;30.698;104.050;2022-10-16T13:40:20;22.90;93.10
17859;DHT22;35426;30.698;104.050;2022-10-16T13:43:07;22.90;92.80
17859;DHT22;35426;30.698;104.050;2022-10-16T13:45:59;22.90;93.30
17859;DHT22;35426;30.698;104.050;2022-10-16T13:48:36;22.90;93.60
17859;DHT22;35426;30.698;104.050;2022-10-16T13:51:17;22.90;93.50
17859;DHT22;35426;30.698;104.050;2022-10-16T13:53:58;22.80;93.70
17859;DHT22;35426;30.698;104.050;2022-10-16T13:56:41;22.80;93.60
17859;DHT22;35426;30.698;104.050;2022-10-16T13:59:48;22.80;93.80
17859;DHT22;35426;30.698;104.050;2022-10-16T14:02:29;22.80;94.20
17859;DHT22;35426;30.698;104.050;2022-10-16T14:05:13;22.80;95.80
17859;DHT22;35426;30.698;104.050;2022-10-16T14:07:53;22.70;95.70
17859;DHT22;35426;30.698;104.050;2022-10-16T14:10:34;22.70;97.00
17859;DHT22;35426;30.698;104.050;2022-10-16T14:13:17;22.60;98.40
17859;DHT22;35426;30.698;104.050;2022-10-16T14:15:58;22.50;99.00
17859;DHT22;35426;30.698;104.050;2022-10-16T14:18:37;22.40;99.30
17859;DHT22;35426;30.698;104.050;2022-10-16T14:21:32;22.30;99.80
17859;DHT22;35426;30.698;104.050;2022-10-16T14:24:30;22.30;99.90
17859;DHT22;35426;30.698;104.050;2022-10-16T14:27:28;22.30;99.90
17859;DHT22;35426;30.698;104.050;2022-10-16T14:30:18;22.30;99.80
17859;DHT22;35426;30.698;104.050;2022-10-16T14:32:58;22.30;99.80
17859;DHT22;35426;30.698;104.050;2022-10-16T14:35:38;22.30;99.40
17859;DHT22;35426;30.698;104.050;2022-10-16T14:38:21;22.30;99.50
17859;DHT22;35426;30.698;104.050;2022-10-16T14:41:00;22.30;99.90
17859;DHT22;35426;30.698;104.050;2022-10-16T14:43:39;22.20;99.90
17859;DHT22;35426;30.698;104.050;2022-10-16T14:46:23;22.20;99.90
17859;DHT22;35426;30.698;104.050;2022-10-16T14:49:24;22.10;99.90
17859;DHT22;35426;30.698;104.050;2022-10-16T14:52:09;22.10;99.90
17859;DHT22;35426;30.698;104.050;2022-10-16T14:54:50;22.10;99.90
17859;DHT22;35426;30.698;104.050;2022-10-16T14:57:34;22.10;99.90
17859;DHT22;35426;30.698;104.050;2022-10-16T15:00:20;22.10;99.90
17859;DHT22;35426;30.698;104.050;2022-10-16T15:03:03;22.00;99.90
17859;DHT22;35426;30.698;104.050;2022-10-16T15:05:45;22.00;99.90
17859;DHT22;35426;30.698;104.050;2022-10-16T15:08:23;21.90;99.90
17859;DHT22;35426;30.698;104.050;2022-10-16T15:11:01;21.90;99.90
17859;DHT22;35426;30.698;104.050;2022-10-16T15:13:43;21.90;99.90
17859;DHT22;35426;30.698;104.050;2022-10-16T15:16:25;21.90;99.90
17859;DHT22;35426;30.698;104.050;2022-10-16T15:19:11;21.80;99.90
17859;DHT22;35426;30.698;104.050;2022-10-16T15:21:52;21.80;99.90
17859;DHT22;35426;30.698;104.050;2022-10-16T15:24:33;21.80;99.90
17859;DHT22;35426;30.698;104.050;2022-10-16T15:27:10;21.80;99.90
17859;DHT22;35426;30.698;104.050;2022-10-16T15:29:55;21.80;99.90
17859;DHT22;35426;30.698;104.050;2022-10-16T15:32:34;21.80;99.90
17859;DHT22;35426;30.698;104.050;2022-10-16T15:35:13;21.80;99.90
17859;DHT22;35426;30.698;104.050;2022-10-16T15:37:52;21.80;99.90
17859;DHT22;35426;30.698;104.050;2022-10-16T15:40:31;21.70;99.90
17859;DHT22;35426;30.698;104.050;2022-10-16T15:43:21;21.80;99.90
17859;DHT22;35426;30.698;104.050;2022-10-16T15:46:02;21.70;99.90
17859;DHT22;35426;30.698;104.050;2022-10-16T15:48:41;21.60;99.90
17859;DHT22;35426;30.698;104.050;2022-10-16T15:51:19;21.60;99.90
17859;DHT22;35426;30.698;104.050;2022-10-16T15:54:02;21.60;99.90
17859;DHT22;35426;30.698;104.050;2022-10-16T15:56:38;21.60;99.90
17859;DHT22;35426;30.698;104.050;2022-10-16T15:59:16;21.60;99.90
17859;DHT22;35426;30.698;104.050;2022-10-16T16:01:52;21.50;99.90
17859;DHT22;35426;30.698;104.050;2022-10-16T16:04:31;21.40;99.90
17859;DHT22;35426;30.698;104.050;2022-10-16T16:07:14;21.40;99.90
17859;DHT22;35426;30.698;104.050;2022-10-16T16:09:57;21.40;99.90
17859;DHT22;35426;30.698;104.050;2022-10-16T16:12:35;21.30;99.90
17859;DHT22;35426;30.698;104.050;2022-10-16T16:15:12;21.30;99.90
17859;DHT22;35426;30.698;104.050;2022-10-16T16:17:50;21.30;99.90
17859;DHT22;35426;30.698;104.050;2022-10-16T16:20:26;21.40;99.90
17859;DHT22;35426;30.698;104.050;2022-10-16T16:23:10;21.40;99.90
17859;DHT22;35426;30.698;104.050;2022-10-16T16:28:40;21.30;99.90
17859;DHT22;35426;30.698;104.050;2022-10-16T16:31:18;21.20;99.90
17859;DHT22;35426;30.698;104.050;2022-10-16T16:33:58;21.20;99.90
17859;DHT22;35426;30.698;104.050;2022-10-16T16:36:34;21.20;99.90
17859;DHT22;35426;30.698;104.050;2022-10-16T16:39:32;21.30;99.90
17859;DHT22;35426;30.698;104.050;2022-10-16T16:42:22;21.50;99.90